createdAt,value
2018-11-07T00:02:06.091Z,11.30
2018-11-07T00:04:41.331Z,11.30
2018-11-07T00:07:15.819Z,11.30
2018-11-07T00:09:57.392Z,11.30
2018-11-07T00:12:34.137Z,11.30
2018-11-07T00:15:20.980Z,11.30
2018-11-07T00:17:56.877Z,11.30
2018-11-07T00:20:29.512Z,11.30
2018-11-07T00:23:07.058Z,11.30
2018-11-07T00:25:48.620Z,11.20
2018-11-07T00:28:40.699Z,11.20
2018-11-07T00:31:10.877Z,11.20
2018-11-07T00:33:43.800Z,11.10
2018-11-07T00:36:15.935Z,11.10
2018-11-07T00:38:47.157Z,11.10
2018-11-07T00:41:17.520Z,11.10
2018-11-07T00:43:50.756Z,11.00
2018-11-07T00:46:20.409Z,11.00
2018-11-07T00:48:52.284Z,10.90
2018-11-07T00:51:22.914Z,10.90
2018-11-07T00:53:59.561Z,10.90
2018-11-07T00:56:30.854Z,10.90
2018-11-07T00:59:02.641Z,10.90
2018-11-07T01:07:34.080Z,10.90
2018-11-07T01:10:04.666Z,10.90
2018-11-07T01:12:34.629Z,10.90
2018-11-07T01:15:22.480Z,10.90
2018-11-07T01:17:54.519Z,10.90
2018-11-07T01:20:25.492Z,10.90
2018-11-07T01:22:55.042Z,10.90
2018-11-07T01:25:27.188Z,10.90
2018-11-07T01:28:02.214Z,10.80
2018-11-07T01:30:33.257Z,10.80
2018-11-07T01:33:02.941Z,10.90
2018-11-07T01:35:33.305Z,10.80
2018-11-07T01:38:05.566Z,10.80
2018-11-07T01:40:36.146Z,10.80
2018-11-07T01:43:06.023Z,10.80
2018-11-07T01:45:39.354Z,10.80
2018-11-07T01:48:09.029Z,10.80
2018-11-07T01:50:40.138Z,10.80
2018-11-07T01:53:11.317Z,10.80
2018-11-07T01:55:41.770Z,10.80
2018-11-07T01:58:12.939Z,10.80
2018-11-07T02:00:44.859Z,10.80
2018-11-07T02:03:16.762Z,10.80
2018-11-07T02:05:48.310Z,10.80
2018-11-07T02:08:19.360Z,10.80
2018-11-07T02:10:49.973Z,10.90
2018-11-07T02:13:21.487Z,10.90
2018-11-07T02:15:52.432Z,11.00
2018-11-07T02:18:23.567Z,11.00
2018-11-07T02:20:54.063Z,11.00
2018-11-07T02:23:28.118Z,11.00
2018-11-07T02:25:58.797Z,11.00
2018-11-07T02:28:33.715Z,11.00
2018-11-07T02:31:04.395Z,11.00
2018-11-07T02:33:33.963Z,11.00
2018-11-07T02:36:10.179Z,11.00
2018-11-07T02:38:39.835Z,11.00
2018-11-07T02:41:10.858Z,11.00
2018-11-07T02:43:42.462Z,11.00
2018-11-07T02:46:12.846Z,11.00
2018-11-07T02:48:43.020Z,11.10
2018-11-07T02:51:13.466Z,11.00
2018-11-07T02:53:43.666Z,11.10
2018-11-07T02:56:14.284Z,11.10
2018-11-07T02:58:45.275Z,11.10
2018-11-07T03:01:15.160Z,11.00
2018-11-07T03:03:46.905Z,11.00
2018-11-07T03:06:18.844Z,11.00
2018-11-07T03:08:52.323Z,11.00
2018-11-07T03:11:23.931Z,11.00
2018-11-07T03:13:55.278Z,11.00
2018-11-07T03:16:31.375Z,11.00
2018-11-07T03:19:02.251Z,11.00
2018-11-07T03:21:32.359Z,11.00
2018-11-07T03:24:03.180Z,11.00
2018-11-07T03:26:33.585Z,11.00
2018-11-07T03:29:09.848Z,10.90
2018-11-07T03:31:39.370Z,10.90
2018-11-07T03:34:08.960Z,10.90
2018-11-07T03:36:38.645Z,10.90
2018-11-07T03:39:11.115Z,10.90
2018-11-07T03:41:40.782Z,10.90
2018-11-07T03:44:11.803Z,10.90
2018-11-07T03:46:42.060Z,10.80
2018-11-07T03:49:13.044Z,10.90
2018-11-07T03:51:44.989Z,10.80
2018-11-07T03:54:15.663Z,10.80
2018-11-07T03:56:47.611Z,10.80
2018-11-07T03:59:20.998Z,10.80
2018-11-07T04:01:51.116Z,10.80
2018-11-07T04:04:21.595Z,10.80
2018-11-07T04:06:52.113Z,10.80
2018-11-07T04:09:23.366Z,10.80
2018-11-07T04:11:55.860Z,10.80
2018-11-07T04:14:26.315Z,10.80
2018-11-07T04:16:56.254Z,10.90
2018-11-07T04:19:28.648Z,10.90
2018-11-07T04:22:00.047Z,10.90
2018-11-07T04:24:32.243Z,10.80
2018-11-07T04:27:02.938Z,10.90
2018-11-07T04:29:34.037Z,10.90
2018-11-07T04:32:05.199Z,10.90
2018-11-07T04:34:38.374Z,10.90
2018-11-07T04:37:10.168Z,10.90
2018-11-07T04:39:40.673Z,11.00
2018-11-07T04:42:11.331Z,10.90
2018-11-07T04:44:41.971Z,11.00
2018-11-07T04:47:13.922Z,10.90
2018-11-07T04:49:51.830Z,11.00
2018-11-07T04:52:33.352Z,11.00
2018-11-07T04:55:04.283Z,11.00
2018-11-07T04:57:35.190Z,11.00
2018-11-07T05:00:26.282Z,10.90
2018-11-07T05:02:55.882Z,10.90
2018-11-07T05:05:26.336Z,10.90
2018-11-07T05:07:57.553Z,10.90
2018-11-07T05:10:27.443Z,10.90
2018-11-07T05:12:58.948Z,10.90
2018-11-07T05:17:00.559Z,10.90
2018-11-07T05:19:31.419Z,10.80
2018-11-07T05:22:02.734Z,10.90
2018-11-07T05:24:36.057Z,10.90
2018-11-07T05:27:06.926Z,10.80
2018-11-07T05:29:37.822Z,10.80
2018-11-07T05:32:09.820Z,10.90
2018-11-07T05:34:40.112Z,10.90
2018-11-07T05:37:11.781Z,10.90
2018-11-07T05:39:47.953Z,10.90
2018-11-07T05:42:29.965Z,10.90
2018-11-07T05:45:01.272Z,10.90
2018-11-07T05:47:33.145Z,10.90
2018-11-07T05:50:05.294Z,10.90
2018-11-07T05:52:38.862Z,10.90
2018-11-07T05:55:10.270Z,10.90
2018-11-07T05:57:40.772Z,10.90
2018-11-07T06:00:13.378Z,10.90
2018-11-07T06:02:44.118Z,10.90
2018-11-07T06:05:13.529Z,11.00
2018-11-07T06:07:42.883Z,10.90
2018-11-07T06:10:13.365Z,11.00
2018-11-07T06:12:45.381Z,11.00
2018-11-07T06:15:15.120Z,11.00
2018-11-07T07:59:34.089Z,11.30
2018-11-07T08:05:18.682Z,11.80
2018-11-07T08:08:19.460Z,11.90
2018-11-07T08:10:50.858Z,12.00
2018-11-07T08:13:20.235Z,12.10
2018-11-07T08:15:49.649Z,12.20
2018-11-07T08:18:19.452Z,12.30
2018-11-07T08:20:48.968Z,12.30
2018-11-07T08:23:18.665Z,12.40
2018-11-07T08:25:48.219Z,12.40
2018-11-07T08:28:18.523Z,12.50
2018-11-07T08:30:50.036Z,12.50
2018-11-07T08:33:21.138Z,12.60
2018-11-07T08:35:56.274Z,12.70
2018-11-07T08:39:48.904Z,12.70
2018-11-07T08:45:00.651Z,12.70
2018-11-07T08:47:31.863Z,12.80
2018-11-07T08:50:03.671Z,12.80
2018-11-07T08:52:34.808Z,12.80
2018-11-07T08:55:27.216Z,12.80
2018-11-07T08:58:10.590Z,12.90
2018-11-07T09:00:40.324Z,13.00
2018-11-07T09:03:10.892Z,13.00
2018-11-07T09:08:56.122Z,13.20
2018-11-07T09:11:26.301Z,13.20
2018-11-07T09:14:02.839Z,13.30
2018-11-07T09:16:32.418Z,13.40
2018-11-07T09:21:43.499Z,13.40
2018-11-07T09:24:20.440Z,13.50
2018-11-07T09:26:51.799Z,13.60
2018-11-07T09:29:24.091Z,13.60
2018-11-07T09:32:10.162Z,13.60
2018-11-07T09:34:50.628Z,13.70
2018-11-07T09:37:21.811Z,13.80
2018-11-07T09:39:58.555Z,13.80
2018-11-07T09:42:30.222Z,13.90
2018-11-07T09:45:00.074Z,13.90
2018-11-07T09:47:29.671Z,14.00
2018-11-07T09:49:59.491Z,14.00
2018-11-07T09:52:30.238Z,14.10
2018-11-07T09:55:01.689Z,14.10
2018-11-07T09:57:35.073Z,14.10
2018-11-07T10:00:05.653Z,14.10
2018-11-07T10:02:38.968Z,14.10
2018-11-07T10:05:29.930Z,14.20
2018-11-07T10:08:01.669Z,14.20
2018-11-07T10:10:32.494Z,14.30
2018-11-07T10:13:04.108Z,14.40
2018-11-07T10:15:33.612Z,14.40
2018-11-07T10:18:02.923Z,14.50
2018-11-07T10:20:37.230Z,14.50
2018-11-07T10:23:06.741Z,14.60
2018-11-07T10:25:39.109Z,14.70
2018-11-07T10:28:10.493Z,14.70
2018-11-07T10:30:39.658Z,14.80
2018-11-07T10:33:09.137Z,14.90
2018-11-07T10:35:50.136Z,14.90
2018-11-07T10:40:59.750Z,15.00
2018-11-07T10:43:31.956Z,15.00
2018-11-07T10:46:06.375Z,15.00
2018-11-07T10:48:47.815Z,15.10
2018-11-07T10:51:17.405Z,15.20
2018-11-07T10:53:47.608Z,15.20
2018-11-07T10:56:18.262Z,15.30
2018-11-07T10:58:47.970Z,15.30
2018-11-07T11:01:24.957Z,15.30
2018-11-07T11:04:04.969Z,15.30
2018-11-07T11:10:41.865Z,15.40
2018-11-07T11:13:16.397Z,15.40
2018-11-07T11:16:13.929Z,15.40
2018-11-07T11:18:58.681Z,15.40
2018-11-07T11:22:33.930Z,15.50
2018-11-07T11:25:19.239Z,15.50
2018-11-07T11:28:20.253Z,15.50
2018-11-07T11:39:27.740Z,15.60
2018-11-07T11:56:11.172Z,15.70
2018-11-07T11:58:40.814Z,15.70
2018-11-07T12:01:11.648Z,15.80
2018-11-07T12:03:44.063Z,15.80
2018-11-07T12:06:17.490Z,15.90
2018-11-07T12:09:14.730Z,15.90
2018-11-07T12:12:31.050Z,16.00
2018-11-07T12:18:06.174Z,16.00
2018-11-07T12:23:26.485Z,16.00
2018-11-07T12:26:13.181Z,16.10
2018-11-07T12:29:27.965Z,16.10
2018-11-07T12:32:02.836Z,16.20
2018-11-07T12:34:34.712Z,16.20
2018-11-07T12:40:16.605Z,16.30
2018-11-07T12:43:03.808Z,16.30
2018-11-07T12:45:36.050Z,16.40
2018-11-07T12:48:14.317Z,16.40
2018-11-07T12:50:55.475Z,16.40
2018-11-07T12:57:13.351Z,16.40
2018-11-07T13:24:04.310Z,16.50
2018-11-07T13:26:47.121Z,16.40
2018-11-07T13:29:19.003Z,16.40
2018-11-07T13:31:48.981Z,16.50
2018-11-07T13:34:22.459Z,16.50
2018-11-07T13:37:06.771Z,16.50
2018-11-07T13:46:09.523Z,16.60
2018-11-07T13:49:04.285Z,16.60
2018-11-07T13:52:35.828Z,16.60
2018-11-07T13:55:32.790Z,16.60
2018-11-07T14:00:52.954Z,16.50
2018-11-07T14:06:28.547Z,16.50
2018-11-07T14:09:02.336Z,16.50
2018-11-07T14:11:52.149Z,16.50
2018-11-07T14:14:39.276Z,16.50
2018-11-07T14:17:59.687Z,16.50
2018-11-07T14:20:38.740Z,16.50
2018-11-07T14:23:13.689Z,16.40
2018-11-07T14:50:10.076Z,16.30
2018-11-07T14:52:46.101Z,16.00
2018-11-07T14:55:20.654Z,16.00
2018-11-07T14:57:51.503Z,16.00
2018-11-07T15:00:22.159Z,16.00
2018-11-07T15:02:54.160Z,16.00
2018-11-07T15:05:26.057Z,16.00
2018-11-07T15:07:57.185Z,16.00
2018-11-07T15:10:42.258Z,16.00
2018-11-07T15:13:21.336Z,15.90
2018-11-07T15:16:31.420Z,15.90
2018-11-07T15:19:09.523Z,15.90
2018-11-07T15:25:44.514Z,15.80
2018-11-07T15:28:46.109Z,15.80
2018-11-07T15:31:17.742Z,15.70
2018-11-07T15:52:58.177Z,15.70
2018-11-07T15:55:36.053Z,15.40
2018-11-07T15:58:43.711Z,15.10
2018-11-07T16:01:53.289Z,15.00
2018-11-07T22:55:51.166Z,11.40
2018-11-07T22:58:51.721Z,11.20
